createdAt,value
2018-10-05T00:01:44.851Z,102073.97
2018-10-05T00:04:13.215Z,102073.56
2018-10-05T00:06:41.555Z,102072.34
2018-10-05T00:09:11.566Z,102065.73
2018-10-05T00:11:39.802Z,102071.50
2018-10-05T00:14:08.445Z,102057.09
2018-10-05T00:16:36.600Z,102065.69
2018-10-05T00:19:04.846Z,102064.53
2018-10-05T00:21:33.244Z,102067.78
2018-10-05T00:24:01.622Z,102066.70
2018-10-05T00:26:29.804Z,102059.46
2018-10-05T00:28:57.941Z,102058.16
2018-10-05T00:31:26.260Z,102057.17
2018-10-05T00:33:54.538Z,102055.33
2018-10-05T00:36:22.626Z,102053.72
2018-10-05T00:38:50.745Z,102050.06
2018-10-05T00:41:19.023Z,102040.50
2018-10-05T00:43:47.209Z,102051.14
2018-10-05T00:46:15.511Z,102045.35
2018-10-05T00:48:43.667Z,102050.09
2018-10-05T00:51:11.857Z,102050.70
2018-10-05T00:53:40.122Z,102051.39
2018-10-05T00:56:08.405Z,102045.62
2018-10-05T00:58:36.710Z,102043.10
2018-10-05T01:01:05.090Z,102040.63
2018-10-05T01:03:33.232Z,102038.44
2018-10-05T01:06:01.578Z,102033.65
2018-10-05T01:08:29.796Z,102032.92
2018-10-05T01:10:57.952Z,102027.88
2018-10-05T01:13:30.459Z,102029.98
2018-10-05T01:15:58.680Z,102035.27
2018-10-05T01:18:26.916Z,102032.91
2018-10-05T01:20:55.069Z,102032.91
2018-10-05T01:23:23.233Z,102032.68
2018-10-05T01:25:51.412Z,102027.25
2018-10-05T01:28:19.696Z,102028.58
2018-10-05T01:30:48.368Z,102030.41
2018-10-05T01:33:16.498Z,102028.12
2018-10-05T01:35:44.637Z,102034.12
2018-10-05T01:38:12.764Z,102028.30
2018-10-05T01:40:40.914Z,102024.78
2018-10-05T01:43:09.064Z,102020.53
2018-10-05T01:45:37.358Z,102023.03
2018-10-05T01:48:05.899Z,102025.59
2018-10-05T01:50:34.290Z,102019.87
2018-10-05T01:53:02.559Z,102008.42
2018-10-05T01:55:31.278Z,102012.69
2018-10-05T01:57:59.520Z,102007.63
2018-10-05T02:00:27.679Z,102005.94
2018-10-05T02:02:55.911Z,102004.14
2018-10-05T02:05:24.144Z,102007.95
2018-10-05T02:07:52.355Z,102012.14
2018-10-05T02:10:20.718Z,102005.09
2018-10-05T02:12:48.861Z,102003.66
2018-10-05T02:15:17.056Z,102008.87
2018-10-05T02:17:45.456Z,101996.86
2018-10-05T02:20:13.586Z,101998.61
2018-10-05T02:22:41.768Z,102005.95
2018-10-05T02:25:10.056Z,101999.75
2018-10-05T02:27:38.461Z,101998.77
2018-10-05T02:30:06.465Z,101989.89
2018-10-05T02:32:34.636Z,101991.73
2018-10-05T02:35:02.793Z,101993.93
2018-10-05T02:37:30.923Z,101990.02
2018-10-05T02:39:59.098Z,101991.19
2018-10-05T02:42:27.274Z,101989.05
2018-10-05T02:44:55.509Z,101991.86
2018-10-05T02:47:23.632Z,101988.28
2018-10-05T02:49:51.756Z,101981.98
2018-10-05T02:52:20.036Z,101982.94
2018-10-05T02:54:48.213Z,101974.82
2018-10-05T02:57:17.464Z,101977.64
2018-10-05T02:59:45.583Z,101979.16
2018-10-05T03:02:25.160Z,101982.64
2018-10-05T03:04:53.315Z,101984.51
2018-10-05T03:07:21.588Z,101979.16
2018-10-05T03:09:49.816Z,101986.90
2018-10-05T03:12:18.041Z,101979.66
2018-10-05T03:14:46.868Z,101982.30
2018-10-05T03:17:15.295Z,101977.17
2018-10-05T03:19:43.662Z,101975.22
2018-10-05T03:22:11.847Z,101972.84
2018-10-05T03:24:40.040Z,101974.16
2018-10-05T03:27:08.236Z,101971.56
2018-10-05T03:29:36.493Z,101961.05
2018-10-05T03:32:04.787Z,101962.35
2018-10-05T03:34:32.901Z,101963.11
2018-10-05T03:37:02.483Z,101958.45
2018-10-05T03:39:30.738Z,101953.39
2018-10-05T03:41:58.894Z,101943.94
2018-10-05T03:44:27.025Z,101937.55
2018-10-05T03:46:55.187Z,101937.12
2018-10-05T03:49:23.349Z,101941.12
2018-10-05T03:51:51.474Z,101932.46
2018-10-05T03:54:19.641Z,101940.99
2018-10-05T03:56:47.823Z,101941.72
2018-10-05T03:59:15.958Z,101942.30
2018-10-05T04:01:44.121Z,101942.42
2018-10-05T04:04:12.295Z,101945.08
2018-10-05T04:06:40.499Z,101946.45
2018-10-05T04:09:09.885Z,101940.78
2018-10-05T04:11:38.030Z,101938.98
2018-10-05T04:14:06.237Z,101937.12
2018-10-05T04:16:34.460Z,101936.11
2018-10-05T04:19:02.759Z,101931.99
2018-10-05T04:21:31.529Z,101935.83
2018-10-05T04:23:59.727Z,101931.66
2018-10-05T04:26:27.972Z,101935.90
2018-10-05T04:28:56.876Z,101944.30
2018-10-05T04:31:25.415Z,101940.31
2018-10-05T04:33:53.607Z,101946.55
2018-10-05T04:36:21.843Z,101942.97
2018-10-05T04:38:50.040Z,101954.45
2018-10-05T04:41:18.204Z,101948.39
2018-10-05T04:43:52.385Z,101951.08
2018-10-05T04:46:21.027Z,101951.97
2018-10-05T04:48:49.213Z,101956.77
2018-10-05T04:51:17.321Z,101955.96
2018-10-05T04:53:46.327Z,101947.50
2018-10-05T04:56:15.173Z,101956.09
2018-10-05T04:58:43.773Z,101958.48
2018-10-05T05:01:11.997Z,101959.32
2018-10-05T05:03:40.281Z,101969.67
2018-10-05T05:06:08.384Z,101961.93
2018-10-05T05:08:36.712Z,101971.98
2018-10-05T05:11:05.043Z,101964.75
2018-10-05T05:13:33.271Z,101969.46
2018-10-05T05:16:01.965Z,101969.25
2018-10-05T05:18:30.100Z,101966.77
2018-10-05T05:21:05.124Z,101962.61
2018-10-05T05:23:33.273Z,101967.19
2018-10-05T05:26:02.423Z,101965.42
2018-10-05T05:28:30.585Z,101969.38
2018-10-05T05:30:58.769Z,101968.63
2018-10-05T05:33:27.085Z,101965.39
2018-10-05T05:35:55.295Z,101970.09
2018-10-05T05:38:23.501Z,101979.27
2018-10-05T05:40:51.747Z,101977.55
2018-10-05T05:43:20.077Z,101976.73
2018-10-05T05:45:48.281Z,101975.77
2018-10-05T05:48:16.453Z,101977.91
2018-10-05T05:50:44.675Z,101981.53
2018-10-05T05:53:13.012Z,101979.81
2018-10-05T05:55:41.291Z,101981.41
2018-10-05T05:58:09.679Z,101984.22
2018-10-05T06:00:37.989Z,101988.14
2018-10-05T06:03:06.129Z,101985.53
2018-10-05T06:05:34.296Z,101988.97
2018-10-05T06:08:02.464Z,101984.56
2018-10-05T06:10:30.615Z,101990.61
2018-10-05T06:12:59.281Z,101989.31
2018-10-05T06:15:27.504Z,101994.58
2018-10-05T06:17:55.716Z,101990.20
2018-10-05T06:20:24.376Z,101992.17
2018-10-05T06:22:52.619Z,101996.21
2018-10-05T06:25:20.757Z,101997.89
2018-10-05T06:27:49.034Z,101997.25
2018-10-05T06:30:17.252Z,102000.50
2018-10-05T06:32:46.057Z,101993.81
2018-10-05T06:35:14.785Z,101992.39
2018-10-05T06:37:43.450Z,101992.47
2018-10-05T06:40:11.889Z,101988.55
2018-10-05T06:42:41.930Z,101992.47
2018-10-05T06:45:10.309Z,101991.58
2018-10-05T06:47:38.483Z,101985.19
2018-10-05T06:50:06.869Z,101989.98
2018-10-05T06:52:35.027Z,101994.99
2018-10-05T06:55:03.213Z,101992.67
2018-10-05T06:57:31.573Z,101998.02
2018-10-05T06:59:59.770Z,102000.31
2018-10-05T07:02:28.669Z,102002.08
2018-10-05T07:04:57.855Z,102006.27
2018-10-05T07:07:26.220Z,102010.09
2018-10-05T07:09:54.528Z,102007.31
2018-10-05T07:12:23.043Z,102018.93
2018-10-05T07:14:51.193Z,102012.05
2018-10-05T07:17:19.429Z,102012.02
2018-10-05T07:19:48.242Z,102018.51
2018-10-05T07:22:17.867Z,102016.36
2018-10-05T07:24:46.135Z,102010.52
2018-10-05T07:27:14.367Z,102012.59
2018-10-05T07:29:42.595Z,102004.53
2018-10-05T07:32:10.806Z,102000.27
2018-10-05T07:34:38.963Z,102003.95
2018-10-05T07:37:07.360Z,102006.06
2018-10-05T07:39:35.446Z,102002.45
2018-10-05T07:42:03.694Z,102003.41
2018-10-05T07:44:31.852Z,101996.73
2018-10-05T07:47:00.187Z,101998.30
2018-10-05T07:49:28.451Z,101996.23
2018-10-05T07:51:56.750Z,101994.61
2018-10-05T07:54:24.834Z,101993.68
2018-10-05T07:56:52.999Z,101994.39
2018-10-05T07:59:21.282Z,101996.27
2018-10-05T08:01:49.573Z,101989.87
2018-10-05T08:04:17.844Z,101987.27
2018-10-05T08:06:46.123Z,101993.20
2018-10-05T08:09:14.711Z,101988.00
2018-10-05T08:11:42.962Z,101990.61
2018-10-05T08:14:11.159Z,101992.27
2018-10-05T08:16:39.278Z,101986.08
2018-10-05T08:19:09.921Z,101983.06
2018-10-05T08:21:39.599Z,101984.98
2018-10-05T08:24:15.452Z,101981.72
2018-10-05T08:26:46.090Z,101977.09
2018-10-05T08:29:17.799Z,101977.51
2018-10-05T08:31:47.740Z,101979.99
2018-10-05T08:34:16.937Z,101979.27
2018-10-05T08:36:45.287Z,101973.84
2018-10-05T08:39:13.465Z,101971.59
2018-10-05T08:41:41.740Z,101969.30
2018-10-05T08:44:10.298Z,101966.55
2018-10-05T08:46:38.805Z,101960.19
2018-10-05T08:49:07.590Z,101956.06
2018-10-05T08:51:36.035Z,101950.83
2018-10-05T08:54:04.277Z,101954.95
2018-10-05T08:56:32.794Z,101945.31
2018-10-05T08:59:00.927Z,101940.69
2018-10-05T09:01:29.162Z,101947.88
2018-10-05T09:03:57.320Z,101945.53
2018-10-05T09:06:25.414Z,101943.58
2018-10-05T09:08:53.580Z,101943.36
2018-10-05T09:11:21.883Z,101935.55
2018-10-05T09:13:50.161Z,101933.97
2018-10-05T09:16:18.392Z,101926.38
2018-10-05T09:18:46.720Z,101932.05
2018-10-05T09:21:14.950Z,101927.63
2018-10-05T09:23:43.157Z,101929.29
2018-10-05T09:26:11.420Z,101922.13
2018-10-05T09:28:39.680Z,101923.23
2018-10-05T09:31:07.944Z,101917.16
2018-10-05T09:33:36.156Z,101919.78
2018-10-05T09:36:04.370Z,101915.98
2018-10-05T09:38:32.666Z,101913.36
2018-10-05T09:41:00.974Z,101910.36
2018-10-05T09:43:29.396Z,101908.03
2018-10-05T09:45:57.525Z,101899.86
2018-10-05T09:48:25.744Z,101911.41
2018-10-05T09:50:54.116Z,101913.62
2018-10-05T09:53:22.689Z,101909.86
2018-10-05T09:55:50.516Z,101896.71
2018-10-05T09:58:18.905Z,101895.23
2018-10-05T10:00:52.532Z,101896.91
2018-10-05T10:03:26.026Z,101891.90
2018-10-05T10:05:54.266Z,101895.31
2018-10-05T10:08:22.553Z,101886.00
2018-10-05T10:10:50.755Z,101880.31
2018-10-05T10:13:18.904Z,101880.42
2018-10-05T10:15:47.152Z,101869.59
2018-10-05T10:18:15.343Z,101866.64
2018-10-05T10:20:43.598Z,101859.14
2018-10-05T10:23:11.801Z,101855.70
2018-10-05T10:25:39.986Z,101853.13
2018-10-05T10:28:08.276Z,101849.30
2018-10-05T10:30:36.385Z,101844.64
2018-10-05T10:33:04.518Z,101840.16
2018-10-05T10:35:32.715Z,101839.66
2018-10-05T10:38:01.489Z,101833.02
2018-10-05T10:40:29.661Z,101833.45
2018-10-05T10:42:57.940Z,101837.88
2018-10-05T10:45:26.147Z,101827.02
2018-10-05T10:47:54.396Z,101825.45
2018-10-05T10:50:22.535Z,101817.42
2018-10-05T10:52:50.725Z,101816.15
2018-10-05T10:55:18.957Z,101818.34
2018-10-05T10:57:47.263Z,101813.36
2018-10-05T11:00:15.429Z,101802.94
2018-10-05T11:02:43.587Z,101805.92
2018-10-05T11:05:12.150Z,101802.75
2018-10-05T11:07:40.402Z,101806.61
2018-10-05T11:10:08.721Z,101797.48
2018-10-05T11:12:36.941Z,101790.00
2018-10-05T11:15:05.179Z,101797.41
2018-10-05T11:17:36.029Z,101787.20
2018-10-05T11:20:04.611Z,101786.00
2018-10-05T11:22:32.954Z,101784.12
2018-10-05T11:25:01.588Z,101778.98
2018-10-05T11:27:29.769Z,101768.49
2018-10-05T11:29:58.091Z,101768.77
2018-10-05T11:32:26.478Z,101763.03
2018-10-05T11:34:54.777Z,101761.16
2018-10-05T11:37:23.316Z,101762.07
2018-10-05T11:39:51.523Z,101755.05
2018-10-05T11:42:19.801Z,101742.69
2018-10-05T11:44:48.409Z,101742.20
2018-10-05T11:47:16.729Z,101730.92
2018-10-05T11:49:44.920Z,101726.05
2018-10-05T11:52:13.212Z,101725.36
2018-10-05T11:54:41.765Z,101711.87
2018-10-05T11:57:10.213Z,101713.36
2018-10-05T11:59:38.384Z,101714.97
2018-10-05T12:02:06.660Z,101713.62
2018-10-05T12:04:34.886Z,101707.84
2018-10-05T12:07:03.118Z,101699.45
2018-10-05T12:09:31.347Z,101693.74
2018-10-05T12:11:59.525Z,101693.41
2018-10-05T12:14:27.700Z,101691.75
2018-10-05T12:16:56.040Z,101685.44
2018-10-05T12:19:24.359Z,101685.80
2018-10-05T12:21:52.588Z,101682.39
2018-10-05T12:24:21.011Z,101676.84
2018-10-05T12:26:49.337Z,101683.56
2018-10-05T12:29:19.032Z,101683.50
2018-10-05T12:31:47.685Z,101680.80
2018-10-05T12:34:15.841Z,101673.87
2018-10-05T12:36:44.610Z,101670.32
2018-10-05T12:39:13.155Z,101673.64
2018-10-05T12:41:41.388Z,101671.92
2018-10-05T12:44:09.729Z,101667.69
2018-10-05T12:46:38.190Z,101665.30
2018-10-05T12:49:06.744Z,101666.63
2018-10-05T12:51:34.921Z,101661.83
2018-10-05T12:54:04.526Z,101656.64
2018-10-05T12:56:32.728Z,101656.77
2018-10-05T12:59:01.280Z,101649.86
2018-10-05T13:01:29.749Z,101652.25
2018-10-05T13:03:57.980Z,101645.70
2018-10-05T13:06:26.735Z,101640.37
2018-10-05T13:08:54.971Z,101639.75
2018-10-05T13:11:23.176Z,101634.53
2018-10-05T13:13:51.421Z,101632.23
2018-10-05T13:16:19.720Z,101629.66
2018-10-05T13:18:48.095Z,101625.11
2018-10-05T13:21:16.343Z,101630.36
2018-10-05T13:23:44.588Z,101627.06
2018-10-05T13:26:12.808Z,101622.18
2018-10-05T13:28:41.129Z,101622.15
2018-10-05T13:31:09.275Z,101614.19
2018-10-05T13:33:37.406Z,101614.08
2018-10-05T13:36:05.703Z,101616.39
2018-10-05T13:38:34.253Z,101614.57
2018-10-05T13:41:02.482Z,101612.02
2018-10-05T13:43:30.818Z,101609.71
2018-10-05T13:45:59.040Z,101616.53
2018-10-05T13:48:31.889Z,101602.59
2018-10-05T13:51:00.173Z,101607.86
2018-10-05T13:53:28.415Z,101598.20
2018-10-05T13:55:56.674Z,101598.38
2018-10-05T13:58:24.983Z,101589.09
2018-10-05T14:00:53.202Z,101588.19
2018-10-05T14:03:21.911Z,101582.80
2018-10-05T14:05:50.322Z,101588.52
2018-10-05T14:08:18.480Z,101577.95
2018-10-05T14:10:46.668Z,101570.55
2018-10-05T14:13:15.291Z,101575.75
2018-10-05T14:15:43.620Z,101574.22
2018-10-05T14:18:11.976Z,101569.41
2018-10-05T14:20:40.376Z,101566.75
2018-10-05T14:23:08.462Z,101560.35
2018-10-05T14:25:36.762Z,101562.08
2018-10-05T14:28:04.904Z,101561.09
2018-10-05T14:30:34.211Z,101560.35
2018-10-05T14:33:02.606Z,101556.90
2018-10-05T14:35:30.897Z,101548.06
2018-10-05T14:37:59.106Z,101549.23
2018-10-05T14:40:27.592Z,101550.47
2018-10-05T14:42:55.889Z,101551.66
2018-10-05T14:45:24.076Z,101546.02
2018-10-05T14:47:52.272Z,101550.88
2018-10-05T14:50:20.432Z,101546.55
2018-10-05T14:52:48.733Z,101535.98
2018-10-05T14:55:16.901Z,101531.06
2018-10-05T14:57:50.824Z,101530.41
2018-10-05T15:00:19.764Z,101524.14
2018-10-05T15:02:48.777Z,101519.38
2018-10-05T15:05:17.507Z,101521.78
2018-10-05T15:07:45.659Z,101512.51
2018-10-05T15:10:13.925Z,101512.30
2018-10-05T15:12:42.138Z,101511.79
2018-10-05T15:15:10.491Z,101506.91
2018-10-05T15:17:38.826Z,101511.97
2018-10-05T15:20:08.670Z,101512.81
2018-10-05T15:22:37.880Z,101505.93
2018-10-05T15:25:06.727Z,101502.61
2018-10-05T15:27:35.058Z,101498.06
2018-10-05T15:30:03.331Z,101500.83
2018-10-05T15:32:31.557Z,101487.63
2018-10-05T15:34:59.850Z,101494.45
2018-10-05T15:37:28.356Z,101484.91
2018-10-05T15:39:56.850Z,101484.00
2018-10-05T15:42:25.117Z,101478.14
2018-10-05T15:44:53.762Z,101484.88
2018-10-05T15:47:21.987Z,101480.13
2018-10-05T15:49:50.137Z,101477.91
2018-10-05T15:52:18.435Z,101483.97
2018-10-05T15:54:46.686Z,101480.22
2018-10-05T15:57:15.737Z,101478.57
2018-10-05T15:59:44.905Z,101484.16
2018-10-05T16:02:13.262Z,101478.91
2018-10-05T16:04:41.539Z,101477.77
2018-10-05T16:07:09.743Z,101477.51
2018-10-05T16:09:38.087Z,101474.24
2018-10-05T16:12:06.596Z,101471.61
2018-10-05T16:14:34.911Z,101473.48
2018-10-05T16:17:03.489Z,101481.09
2018-10-05T16:19:31.785Z,101472.52
2018-10-05T16:22:00.047Z,101474.17
2018-10-05T16:24:32.337Z,101475.09
2018-10-05T16:27:00.670Z,101471.64
2018-10-05T16:29:29.019Z,101464.73
2018-10-05T16:31:57.268Z,101462.75
2018-10-05T16:34:25.520Z,101465.30
2018-10-05T16:36:53.777Z,101458.86
2018-10-05T16:39:22.647Z,101458.86
2018-10-05T16:41:50.921Z,101458.38
2018-10-05T16:44:19.204Z,101464.23
2018-10-05T16:46:48.328Z,101459.94
2018-10-05T16:49:16.609Z,101457.84
2018-10-05T16:51:47.958Z,101462.65
2018-10-05T16:54:16.184Z,101459.39
2018-10-05T16:56:44.432Z,101457.14
2018-10-05T16:59:12.706Z,101451.53
2018-10-05T17:01:41.071Z,101447.59
2018-10-05T17:04:09.264Z,101452.84
2018-10-05T17:06:37.727Z,101451.78
2018-10-05T17:09:09.613Z,101449.68
2018-10-05T17:11:40.218Z,101452.34
2018-10-05T17:14:08.617Z,101450.92
2018-10-05T17:16:37.364Z,101449.92
2018-10-05T17:19:05.940Z,101441.52
2018-10-05T17:21:34.492Z,101437.09
2018-10-05T17:24:02.805Z,101436.12
2018-10-05T17:26:31.048Z,101427.83
2018-10-05T17:28:59.294Z,101431.48
2018-10-05T17:31:27.589Z,101431.23
2018-10-05T17:33:55.776Z,101424.45
2018-10-05T17:36:24.054Z,101423.13
2018-10-05T17:38:53.049Z,101421.28
2018-10-05T17:41:22.793Z,101426.09
2018-10-05T17:43:51.063Z,101421.29
2018-10-05T17:46:19.380Z,101423.41
2018-10-05T17:48:47.686Z,101417.14
2018-10-05T17:51:15.899Z,101414.19
2018-10-05T17:53:44.236Z,101413.83
2018-10-05T17:56:12.570Z,101413.77
2018-10-05T17:58:40.691Z,101407.86
2018-10-05T18:01:08.977Z,101405.96
2018-10-05T18:03:40.254Z,101410.06
2018-10-05T18:06:08.546Z,101406.72
2018-10-05T18:08:36.860Z,101403.70
2018-10-05T18:11:05.069Z,101399.59
2018-10-05T18:13:33.863Z,101403.27
2018-10-05T18:16:02.874Z,101400.92
2018-10-05T18:18:31.545Z,101393.88
2018-10-05T18:21:01.359Z,101392.58
2018-10-05T18:23:29.786Z,101399.13
2018-10-05T18:25:58.080Z,101396.20
2018-10-05T18:28:26.579Z,101391.07
2018-10-05T18:30:54.815Z,101391.00
2018-10-05T18:33:23.000Z,101394.17
2018-10-05T18:35:51.378Z,101393.41
2018-10-05T18:38:19.945Z,101393.93
2018-10-05T18:40:48.181Z,101395.66
2018-10-05T18:43:16.401Z,101386.51
2018-10-05T18:45:45.254Z,101388.30
2018-10-05T18:48:13.476Z,101383.00
2018-10-05T18:50:41.771Z,101388.95
2018-10-05T18:53:10.291Z,101385.05
2018-10-05T18:55:38.637Z,101375.80
2018-10-05T18:58:06.858Z,101373.91
2018-10-05T19:00:35.118Z,101369.55
2018-10-05T19:03:03.463Z,101372.75
2018-10-05T19:05:31.758Z,101369.10
2018-10-05T19:08:00.561Z,101368.42
2018-10-05T19:10:29.039Z,101366.38
2018-10-05T19:12:57.536Z,101366.89
2018-10-05T19:15:25.756Z,101369.80
2018-10-05T19:17:54.131Z,101364.73
2018-10-05T19:20:22.738Z,101367.23
2018-10-05T19:22:50.949Z,101363.37
2018-10-05T19:25:19.292Z,101362.08
2018-10-05T19:27:47.500Z,101355.39
2018-10-05T19:30:15.726Z,101353.58
2018-10-05T19:32:44.154Z,101354.75
2018-10-05T19:35:12.566Z,101351.18
2018-10-05T19:37:41.016Z,101350.27
2018-10-05T19:40:09.380Z,101354.19
2018-10-05T19:42:37.863Z,101342.50
2018-10-05T19:45:07.119Z,101339.06
2018-10-05T19:47:35.614Z,101347.28
2018-10-05T19:50:03.882Z,101347.06
2018-10-05T19:52:32.116Z,101345.20
2018-10-05T19:55:00.406Z,101338.80
2018-10-05T19:57:31.540Z,101341.00
2018-10-05T19:59:59.864Z,101332.75
2018-10-05T20:02:28.134Z,101331.34
2018-10-05T20:04:56.385Z,101331.92
2018-10-05T20:07:26.345Z,101324.74
2018-10-05T20:09:54.784Z,101312.36
2018-10-05T20:12:23.011Z,101310.09
2018-10-05T20:14:51.304Z,101309.16
2018-10-05T20:17:19.537Z,101310.74
2018-10-05T20:19:47.757Z,101308.22
2018-10-05T20:22:16.001Z,101306.91
2018-10-05T20:24:44.202Z,101307.84
2018-10-05T20:27:12.724Z,101305.27
2018-10-05T20:29:40.913Z,101304.97
2018-10-05T20:32:09.102Z,101298.88
2018-10-05T20:34:37.301Z,101303.36
2018-10-05T20:37:05.709Z,101302.36
2018-10-05T20:39:33.817Z,101303.01
2018-10-05T20:42:02.017Z,101304.19
2018-10-05T20:44:30.293Z,101296.91
2018-10-05T20:46:58.468Z,101290.50
2018-10-05T20:49:26.659Z,101287.35
2018-10-05T20:51:54.865Z,101289.80
2018-10-05T20:54:23.072Z,101274.11
2018-10-05T20:56:51.529Z,101279.85
2018-10-05T20:59:19.751Z,101272.71
2018-10-05T21:01:47.945Z,101278.15
2018-10-05T21:04:16.154Z,101278.59
2018-10-05T21:06:44.374Z,101275.55
2018-10-05T21:09:12.541Z,101281.07
2018-10-05T21:11:40.755Z,101275.70
2018-10-05T21:14:12.640Z,101268.09
2018-10-05T21:16:40.873Z,101265.94
2018-10-05T21:19:09.149Z,101269.12
2018-10-05T21:21:37.323Z,101268.38
2018-10-05T21:24:05.608Z,101265.53
2018-10-05T21:26:33.818Z,101268.30
2018-10-05T21:29:02.226Z,101263.30
2018-10-05T21:31:31.325Z,101251.72
2018-10-05T21:33:59.731Z,101252.80
2018-10-05T21:36:28.094Z,101250.63
2018-10-05T21:38:56.367Z,101250.75
2018-10-05T21:41:24.561Z,101250.91
2018-10-05T21:43:52.799Z,101254.23
2018-10-05T21:46:20.955Z,101246.16
2018-10-05T21:48:49.873Z,101240.91
2018-10-05T21:51:18.090Z,101238.62
2018-10-05T21:53:46.232Z,101227.79
2018-10-05T21:56:14.490Z,101228.72
2018-10-05T21:58:42.663Z,101223.93
2018-10-05T22:01:10.857Z,101229.02
2018-10-05T22:03:39.073Z,101219.84
2018-10-05T22:06:07.435Z,101219.66
2018-10-05T22:08:35.564Z,101220.41
2018-10-05T22:11:04.013Z,101220.77
2018-10-05T22:13:32.174Z,101214.97
2018-10-05T22:16:01.061Z,101218.67
2018-10-05T22:18:29.271Z,101209.39
2018-10-05T22:20:57.441Z,101202.23
2018-10-05T22:23:25.739Z,101198.03
2018-10-05T22:25:53.931Z,101191.30
2018-10-05T22:28:22.228Z,101189.80
2018-10-05T22:30:50.423Z,101193.52
2018-10-05T22:33:18.680Z,101190.74
2018-10-05T22:35:46.912Z,101191.45
2018-10-05T22:38:15.122Z,101190.64
2018-10-05T22:40:43.322Z,101190.16
2018-10-05T22:43:11.468Z,101197.09
2018-10-05T22:45:39.804Z,101195.35
2018-10-05T22:48:07.994Z,101194.77
2018-10-05T22:50:36.252Z,101181.70
2018-10-05T22:53:04.455Z,101184.13
2018-10-05T22:55:32.704Z,101190.21
2018-10-05T22:58:00.950Z,101188.28
2018-10-05T23:00:29.156Z,101182.58
2018-10-05T23:02:57.388Z,101179.64
2018-10-05T23:05:25.604Z,101179.82
2018-10-05T23:07:53.910Z,101182.00
2018-10-05T23:10:22.226Z,101171.31
2018-10-05T23:12:50.430Z,101183.47
2018-10-05T23:15:18.635Z,101181.66
2018-10-05T23:17:46.910Z,101176.10
2018-10-05T23:20:15.112Z,101177.80
2018-10-05T23:22:43.438Z,101175.63
2018-10-05T23:25:11.598Z,101171.31
2018-10-05T23:27:40.055Z,101167.48
2018-10-05T23:30:08.390Z,101167.43
2018-10-05T23:32:36.612Z,101154.61
2018-10-05T23:35:04.850Z,101166.39
2018-10-05T23:37:33.137Z,101166.81
2018-10-05T23:40:01.358Z,101172.64
2018-10-05T23:42:30.045Z,101162.23
2018-10-05T23:44:58.232Z,101156.64
2018-10-05T23:47:26.426Z,101163.16
2018-10-05T23:49:55.304Z,101156.50
2018-10-05T23:52:45.126Z,101158.38
2018-10-05T23:55:13.282Z,101157.46
2018-10-05T23:57:41.896Z,101150.85
